Time;durP1;ratioP1;P1;durP2;ratioP2;P2;SDS_P1;SDS_P2;PMS_P1;PMS_P2;Temp;Humidity;BMP_temperature;BMP_pressure;BME280_temperature;BME280_humidity;BME280_pressure;Samples;Min_cycle;Max_cycle;Signal;HPM_P1;HPM_P2
2021/10/12 00:00:08;;;;;;;;;;;;;;;7.73;87.94;97629.87;30001;982;1885;-64
2021/10/12 00:00:38;;;;;;;;;;;;;;;7.74;88.12;97641.50;30001;982;1880;-63
2021/10/12 00:01:09;;;;;;;;;;;;;;;7.73;88.31;97639.88;30001;983;1884;-64
2021/10/12 00:01:40;;;;;;;;;;;;;;;7.71;88.19;97637.41;30001;983;1880;-64
2021/10/12 00:02:11;;;;;;;;;;;;;;;7.71;88.03;97633.91;30001;983;1884;-62
2021/10/12 00:02:41;;;;;;;;;;;;;;;7.71;87.91;97637.41;30001;983;1853;-63
2021/10/12 00:03:12;;;;;;;;;;;;;;;7.72;87.88;97643.63;30001;983;1858;-63
2021/10/12 00:03:43;;;;;;;;;;;;;;;7.72;88.06;97640.94;30001;983;1880;-64
2021/10/12 00:04:14;;;;;;;;;;;;;;;7.70;87.91;97637.69;30001;983;1884;-62
2021/10/12 00:04:44;;;;;;;;;;;;;;;7.69;88.10;97633.34;30001;983;1880;-65
2021/10/12 00:05:15;;;;;;;;;;;;;;;7.69;88.15;97636.84;30001;983;1858;-64
2021/10/12 00:05:47;;;;;;;;;;;;;;;7.69;88.47;97636.03;30001;983;1880;-63
2021/10/12 00:06:18;;;;;;;;;;;;;;;7.69;88.50;97636.03;30001;982;1884;-64
2021/10/12 00:06:49;;;;;;;;;;;;;;;7.67;88.25;97635.47;30001;982;1880;-62
2021/10/12 00:07:20;;;;;;;;;;;;;;;7.67;88.44;97635.47;30001;982;1885;-64
2021/10/12 00:07:52;;;;;;;;;;;;;;;7.65;88.54;97637.63;30001;982;1880;-62
2021/10/12 00:08:23;;;;;;;;;;;;;;;7.65;88.38;97638.44;30001;982;1885;-63
2021/10/12 00:08:53;;;;;;;;;;;;;;;7.65;88.46;97624.13;30001;983;1880;-65
2021/10/12 00:09:24;;;;;;;;;;;;;;;7.65;88.67;97633.03;30001;983;1884;-62
2021/10/12 00:09:55;;;;;;;;;;;;;;;7.66;88.41;97626.56;30001;983;1853;-63
2021/10/12 00:10:26;;;;;;;;;;;;;;;7.65;88.80;97632.22;30001;983;1884;-63
2021/10/12 00:10:57;;;;;;;;;;;;;;;7.66;88.70;97623.06;30001;983;1880;-62
2021/10/12 00:11:28;;;;;;;;;;;;;;;7.66;88.66;97628.44;30001;983;1884;-63
2021/10/12 00:11:58;;;;;;;;;;;;;;;7.66;88.52;97623.87;30001;983;1880;-63
2021/10/12 00:12:29;;;;;;;;;;;;;;;7.67;88.82;97630.09;30001;983;1884;-63
2021/10/12 00:13:01;;;;;;;;;;;;;;;7.66;88.65;97623.06;30001;983;1880;-63
2021/10/12 00:13:32;;;;;;;;;;;;;;;7.66;88.79;97625.75;30001;983;1858;-62
2021/10/12 00:14:03;;;;;;;;;;;;;;;7.66;88.88;97628.44;30001;982;1880;-63
2021/10/12 00:14:34;;;;;;;;;;;;;;;7.66;88.94;97625.75;30001;982;1885;-62
2021/10/12 00:15:06;;;;;;;;;;;;;;;7.66;88.65;97623.87;30001;982;1880;-64
2021/10/12 00:15:37;;;;;;;;;;;;;;;7.65;89.12;97627.62;30001;982;1885;-64
2021/10/12 00:16:09;;;;;;;;;;;;;;;7.64;88.83;97625.19;30001;983;1880;-63
2021/10/12 00:16:39;;;;;;;;;;;;;;;7.64;88.75;97625.19;30001;983;1884;-63
2021/10/12 00:17:11;;;;;;;;;;;;;;;7.65;88.84;97616.00;30001;983;1880;-63
2021/10/12 00:17:42;;;;;;;;;;;;;;;7.65;88.96;97626.81;30001;983;1858;-64
2021/10/12 00:18:13;;;;;;;;;;;;;;;7.66;88.65;97628.44;30001;983;1853;-63
2021/10/12 00:18:43;;;;;;;;;;;;;;;7.67;88.62;97627.38;30001;983;1884;-63
2021/10/12 00:19:14;;;;;;;;;;;;;;;7.67;88.72;97625.50;30001;983;1880;-63
2021/10/12 00:19:45;;;;;;;;;;;;;;;7.67;89.02;97620.09;30001;983;1885;-63
2021/10/12 00:20:16;;;;;;;;;;;;;;;7.69;88.99;97630.63;30001;983;1880;-62
2021/10/12 00:20:47;;;;;;;;;;;;;;;7.68;89.18;97624.44;30001;983;1885;-64
2021/10/12 00:21:18;;;;;;;;;;;;;;;7.69;88.79;97628.75;30001;982;1854;-63
2021/10/12 00:21:49;;;;;;;;;;;;;;;7.69;88.80;97630.63;30001;982;1858;-64
2021/10/12 00:22:20;;;;;;;;;;;;;;;7.70;88.70;97624.97;30001;982;1880;-63
2021/10/12 00:22:50;;;;;;;;;;;;;;;7.71;88.89;97620.41;30001;982;1885;-63
2021/10/12 00:23:21;;;;;;;;;;;;;;;7.72;88.75;97622.03;30001;982;1880;-62
2021/10/12 00:23:52;;;;;;;;;;;;;;;7.73;88.73;97629.87;30001;983;1884;-64
2021/10/12 00:24:23;;;;;;;;;;;;;;;7.73;88.54;97623.66;30001;983;1880;-63
2021/10/12 00:24:54;;;;;;;;;;;;;;;7.73;88.72;97623.66;30001;983;1884;-63
2021/10/12 00:25:25;;;;;;;;;;;;;;;7.71;88.76;97625.81;30001;983;1880;-63
2021/10/12 00:25:56;;;;;;;;;;;;;;;7.71;88.73;97623.09;30001;983;1884;-63
2021/10/12 00:26:26;;;;;;;;;;;;;;;7.70;88.89;97624.16;30001;983;1880;-63
2021/10/12 00:26:57;;;;;;;;;;;;;;;7.71;88.99;97623.09;30001;983;1858;-63
2021/10/12 00:27:28;;;;;;;;;;;;;;;7.70;88.67;97624.16;30001;983;1854;-63
2021/10/12 00:27:59;;;;;;;;;;;;;;;7.71;88.82;97625.81;30001;982;1885;-63
2021/10/12 00:28:30;;;;;;;;;;;;;;;7.71;88.62;97620.41;30001;982;1880;-63
2021/10/12 00:29:01;;;;;;;;;;;;;;;7.71;88.75;97626.62;30001;982;1885;-63
2021/10/12 00:29:32;;;;;;;;;;;;;;;7.72;88.54;97622.03;30001;982;1880;-64
2021/10/12 00:30:06;;;;;;;;;;;;;;;7.73;88.65;97623.66;30001;982;1885;-64
2021/10/12 00:30:37;;;;;;;;;;;;;;;7.74;88.35;97614.47;30001;982;1881;-63
2021/10/12 00:31:08;;;;;;;;;;;;;;;7.74;88.54;97619.88;30001;982;1885;-63
2021/10/12 00:31:39;;;;;;;;;;;;;;;7.74;88.45;97615.31;30001;983;1880;-62
2021/10/12 00:32:10;;;;;;;;;;;;;;;7.73;88.54;97623.66;30001;983;1884;-63
2021/10/12 00:32:40;;;;;;;;;;;;;;;7.72;88.61;97616.63;30001;983;1853;-63
2021/10/12 00:33:11;;;;;;;;;;;;;;;7.73;88.81;97621.78;30001;983;1884;-63
2021/10/12 00:33:42;;;;;;;;;;;;;;;7.74;88.35;97620.69;30001;983;1880;-63
2021/10/12 00:34:13;;;;;;;;;;;;;;;7.75;88.60;97618.81;30001;983;1884;-63
2021/10/12 00:34:44;;;;;;;;;;;;;;;7.73;88.36;97619.06;30001;983;1880;-64
2021/10/12 00:35:15;;;;;;;;;;;;;;;7.72;88.57;97627.44;30001;983;1858;-63
2021/10/12 00:35:46;;;;;;;;;;;;;;;7.72;88.84;97613.94;30001;982;1776;-64
2021/10/12 00:36:17;;;;;;;;;;;;;;;7.71;88.66;97623.09;30001;982;1885;-62
2021/10/12 00:36:48;;;;;;;;;;;;;;;7.71;88.48;97615.00;30001;982;1880;-63
2021/10/12 00:37:18;;;;;;;;;;;;;;;7.72;88.87;97619.31;30001;982;1858;-62
2021/10/12 00:37:49;;;;;;;;;;;;;;;7.71;88.58;97620.41;30001;982;1881;-64
2021/10/12 00:38:22;;;;;;;;;;;;;;;7.71;88.70;97626.62;30001;982;1885;-63
2021/10/12 00:38:53;;;;;;;;;;;;;;;7.72;88.63;97613.94;30001;983;1880;-64
2021/10/12 00:39:23;;;;;;;;;;;;;;;7.76;88.95;97617.75;30001;983;1884;-64
2021/10/12 00:39:54;;;;;;;;;;;;;;;7.76;88.38;97617.75;30001;983;1880;-63
2021/10/12 00:40:25;;;;;;;;;;;;;;;7.76;88.43;97616.94;30001;983;1884;-63
2021/10/12 00:40:57;;;;;;;;;;;;;;;7.75;88.41;97613.41;30001;983;1853;-65
2021/10/12 00:41:29;;;;;;;;;;;;;;;7.74;88.67;97617.19;30001;983;1884;-63
2021/10/12 00:42:00;;;;;;;;;;;;;;;7.73;88.40;97607.44;30001;983;1880;-63
2021/10/12 00:42:31;;;;;;;;;;;;;;;7.72;88.58;97612.03;30001;983;1884;-64
2021/10/12 00:43:02;;;;;;;;;;;;;;;7.73;88.69;97604.75;30001;982;1880;-64
2021/10/12 00:43:33;;;;;;;;;;;;;;;7.73;88.73;97612.84;30001;982;1885;-62
2021/10/12 00:44:06;;;;;;;;;;;;;;;7.72;88.43;97611.22;30001;982;1880;-63
2021/10/12 00:44:37;;;;;;;;;;;;;;;7.72;88.65;97606.63;30001;982;1885;-62
2021/10/12 00:45:10;;;;;;;;;;;;;;;7.72;88.72;97601.22;30001;982;1740;-64
2021/10/12 00:45:41;;;;;;;;;;;;;;;7.74;88.80;97603.69;30001;982;1885;-63
2021/10/12 00:46:12;;;;;;;;;;;;;;;7.73;88.31;97608.25;30001;982;1881;-63
2021/10/12 00:46:43;;;;;;;;;;;;;;;7.73;88.53;97602.06;30001;983;1884;-64
2021/10/12 00:47:14;;;;;;;;;;;;;;;7.70;88.54;97607.97;30001;983;1880;-64
2021/10/12 00:47:55;;;;;;;;;;;;;;;7.69;88.88;97606.34;30001;983;1884;-64
2021/10/12 00:48:25;;;;;;;;;;;;;;;7.67;88.96;97605.78;30001;983;1880;-63
2021/10/12 00:48:57;;;;;;;;;;;;;;;7.69;89.09;97609.03;30001;985;1876;-63
2021/10/12 00:49:28;;;;;;;;;;;;;;;7.69;88.89;97601.75;30001;983;1884;-63
2021/10/12 00:49:59;;;;;;;;;;;;;;;7.69;88.97;97606.34;30001;983;1854;-63
2021/10/12 00:50:33;;;;;;;;;;;;;;;7.68;89.02;97599.31;30001;982;1885;-63
2021/10/12 00:51:04;;;;;;;;;;;;;;;7.69;88.98;97603.62;30001;982;1880;-63
2021/10/12 00:51:35;;;;;;;;;;;;;;;7.66;88.78;97604.12;30001;982;1885;-62
2021/10/12 00:52:06;;;;;;;;;;;;;;;7.66;88.81;97602.25;30001;982;1880;-63
2021/10/12 00:52:37;;;;;;;;;;;;;;;7.66;88.65;97596.03;30001;982;1885;-62
2021/10/12 00:53:07;;;;;;;;;;;;;;;7.67;88.88;97603.88;30001;983;1853;-63
2021/10/12 00:53:39;;;;;;;;;;;;;;;7.64;88.98;97608.97;30001;983;1884;-62
2021/10/12 00:54:10;;;;;;;;;;;;;;;7.63;89.10;97604.66;30001;983;1880;-64
2021/10/12 00:54:41;;;;;;;;;;;;;;;7.63;88.91;97607.34;30001;983;1884;-63
2021/10/12 00:55:11;;;;;;;;;;;;;;;7.60;89.15;97605.19;30001;983;1880;-63
2021/10/12 00:55:42;;;;;;;;;;;;;;;7.59;89.08;97606.25;30001;983;1884;-61
2021/10/12 00:56:13;;;;;;;;;;;;;;;7.58;89.23;97605.44;30001;983;1880;-63
2021/10/12 00:56:45;;;;;;;;;;;;;;;7.58;89.31;97604.62;30001;983;1885;-65
2021/10/12 00:57:16;;;;;;;;;;;;;;;7.58;89.06;97604.62;30001;983;1854;-64
2021/10/12 00:57:47;;;;;;;;;;;;;;;7.57;89.39;97603.81;30001;983;1858;-64
2021/10/12 00:58:18;;;;;;;;;;;;;;;7.58;88.84;97604.62;30001;982;1880;-64
2021/10/12 00:58:49;;;;;;;;;;;;;;;7.58;89.13;97604.62;30001;982;1885;-63
2021/10/12 00:59:20;;;;;;;;;;;;;;;7.58;89.01;97604.62;30001;982;1881;-63
2021/10/12 00:59:53;;;;;;;;;;;;;;;7.58;88.92;97602.75;30001;982;1885;-64
2021/10/12 01:00:25;;;;;;;;;;;;;;;7.60;89.12;97602.50;30001;982;1880;-64
2021/10/12 01:00:55;;;;;;;;;;;;;;;7.58;89.19;97604.62;30001;983;1884;-64
2021/10/12 01:01:26;;;;;;;;;;;;;;;7.58;89.18;97605.44;30001;983;1854;-64
2021/10/12 01:01:57;;;;;;;;;;;;;;;7.57;89.21;97606.50;30001;983;1884;-63
2021/10/12 01:02:28;;;;;;;;;;;;;;;7.57;89.18;97606.50;30001;983;1880;-63
2021/10/12 01:02:59;;;;;;;;;;;;;;;7.56;88.94;97601.38;30001;983;1884;-62
2021/10/12 01:03:30;;;;;;;;;;;;;;;7.56;89.54;97601.38;30001;983;1880;-65
2021/10/12 01:04:01;;;;;;;;;;;;;;;7.55;89.16;97602.44;30001;983;1858;-64
2021/10/12 01:04:32;;;;;;;;;;;;;;;7.54;89.18;97604.31;30001;983;1793;-63
2021/10/12 01:05:07;;;;;;;;;;;;;;;7.56;89.51;97604.06;30001;983;1884;-62
2021/10/12 01:05:38;;;;;;;;;;;;;;;7.55;89.45;97600.56;30001;982;1880;-64
2021/10/12 01:06:09;;;;;;;;;;;;;;;7.56;89.01;97601.38;30001;982;1885;-61
2021/10/12 01:06:40;;;;;;;;;;;;;;;7.55;89.46;97605.13;30001;982;1880;-63
2021/10/12 01:07:11;;;;;;;;;;;;;;;7.59;89.01;97606.25;30001;982;1858;-65
2021/10/12 01:07:42;;;;;;;;;;;;;;;7.58;89.01;97600.03;30001;982;1880;-63
2021/10/12 01:08:13;;;;;;;;;;;;;;;7.59;88.98;97596.28;30001;983;1884;-62
2021/10/12 01:08:43;;;;;;;;;;;;;;;7.59;88.72;97600.84;30001;983;1853;-64
2021/10/12 01:09:14;;;;;;;;;;;;;;;7.58;88.72;97604.62;30001;983;1884;-64
2021/10/12 01:09:45;;;;;;;;;;;;;;;7.58;89.19;97604.62;30001;983;1880;-62
2021/10/12 01:10:17;;;;;;;;;;;;;;;7.57;88.91;97597.59;30001;983;1884;-63
2021/10/12 01:10:48;;;;;;;;;;;;;;;7.59;88.95;97608.97;30001;983;1880;-65
2021/10/12 01:11:20;;;;;;;;;;;;;;;7.59;89.25;97600.84;30001;983;1884;-63
2021/10/12 01:11:50;;;;;;;;;;;;;;;7.61;89.19;97598.72;30001;983;1880;-64
2021/10/12 01:12:22;;;;;;;;;;;;;;;7.63;88.70;97601.94;30001;983;1884;-63
2021/10/12 01:12:53;;;;;;;;;;;;;;;7.63;88.64;97596.56;30001;983;1880;-63
2021/10/12 01:13:25;;;;;;;;;;;;;;;7.62;88.66;97603.06;30001;982;1884;-64
2021/10/12 01:13:56;;;;;;;;;;;;;;;7.61;88.70;97598.72;30001;982;1854;-63
2021/10/12 01:14:27;;;;;;;;;;;;;;;7.61;88.62;97598.72;30001;982;1885;-64
2021/10/12 01:14:57;;;;;;;;;;;;;;;7.61;89.02;97602.25;30001;982;1880;-63
2021/10/12 01:15:31;;;;;;;;;;;;;;;7.61;88.61;97596.84;30001;982;1885;-63
2021/10/12 01:16:03;;;;;;;;;;;;;;;7.61;88.45;97598.72;30001;983;1853;-63
2021/10/12 01:16:34;;;;;;;;;;;;;;;7.60;88.51;97605.19;30001;983;1884;-64
2021/10/12 01:17:04;;;;;;;;;;;;;;;7.59;88.69;97600.84;30001;983;1880;-64
2021/10/12 01:17:36;;;;;;;;;;;;;;;7.59;88.88;97595.47;30001;983;1884;-64
2021/10/12 01:18:11;;;;;;;;;;;;;;;7.58;88.99;97599.22;30001;983;1880;-63
2021/10/12 01:18:55;;;;;;;;;;;;;;;7.58;88.71;97596.53;30001;983;1858;-64
2021/10/12 01:19:27;;;;;;;;;;;;;;;7.56;88.91;97593.28;30001;983;1880;-63
2021/10/12 01:19:58;;;;;;;;;;;;;;;7.54;88.81;97603.50;30001;983;1884;-64
2021/10/12 01:20:35;;;;;;;;;;;;;;;7.52;89.20;97594.84;30001;983;1880;-63
2021/10/12 01:21:06;;;;;;;;;;;;;;;7.51;89.17;97595.91;30002;982;1885;-64
2021/10/12 01:21:38;;;;;;;;;;;;;;;7.50;89.12;97600.50;30002;982;1854;-63
2021/10/12 01:22:09;;;;;;;;;;;;;;;7.50;89.07;97597.00;30002;982;1885;-64
2021/10/12 01:22:41;;;;;;;;;;;;;;;7.51;89.08;97596.72;30002;982;1880;-64
2021/10/12 01:23:12;;;;;;;;;;;;;;;7.52;89.09;97594.84;30002;982;1885;-65
2021/10/12 01:23:43;;;;;;;;;;;;;;;7.51;88.92;97595.91;30002;983;1853;-63
2021/10/12 01:24:15;;;;;;;;;;;;;;;7.50;89.27;97597.00;30002;983;1884;-63
2021/10/12 01:24:45;;;;;;;;;;;;;;;7.51;89.29;97587.81;30002;983;1879;-63
2021/10/12 01:25:17;;;;;;;;;;;;;;;7.51;89.40;97587.81;30002;983;1884;-64
2021/10/12 01:25:47;;;;;;;;;;;;;;;7.52;89.35;97595.66;30002;983;1880;-63
2021/10/12 01:26:18;;;;;;;;;;;;;;;7.54;88.91;97592.72;30002;983;1884;-64
2021/10/12 01:26:49;;;;;;;;;;;;;;;7.56;88.82;97587.88;30002;983;1854;-64
2021/10/12 01:27:22;;;;;;;;;;;;;;;7.56;89.06;97585.16;30002;983;1858;-63
2021/10/12 01:27:53;;;;;;;;;;;;;;;7.57;88.69;97592.19;30002;982;1880;-64
2021/10/12 01:28:23;;;;;;;;;;;;;;;7.57;88.92;97594.91;30002;982;1885;-64
2021/10/12 01:28:54;;;;;;;;;;;;;;;7.57;88.88;97589.50;30002;982;1881;-64
2021/10/12 01:29:25;;;;;;;;;;;;;;;7.56;88.71;97595.97;30002;982;1885;-64
2021/10/12 01:29:56;;;;;;;;;;;;;;;7.55;88.69;97588.94;30002;982;1881;-64
2021/10/12 01:30:27;;;;;;;;;;;;;;;7.53;88.57;97581.09;30002;982;1885;-62
2021/10/12 01:30:58;;;;;;;;;;;;;;;7.53;88.97;97585.69;30002;983;1880;-63
2021/10/12 01:31:29;;;;;;;;;;;;;;;7.52;89.04;97584.03;30002;983;1884;-64
2021/10/12 01:32:00;;;;;;;;;;;;;;;7.52;88.99;97584.87;30002;983;1853;-63
2021/10/12 01:32:31;;;;;;;;;;;;;;;7.52;88.76;97578.66;30002;983;1858;-64
2021/10/12 01:33:03;;;;;;;;;;;;;;;7.55;89.14;97570.03;30002;983;1880;-64
2021/10/12 01:33:34;;;;;;;;;;;;;;;7.55;88.87;97580.84;30002;983;1884;-64
2021/10/12 01:34:12;;;;;;;;;;;;;;;7.55;88.58;97570.03;30002;983;1880;-64
2021/10/12 01:34:43;;;;;;;;;;;;;;;7.55;88.54;97572.72;30002;983;1884;-64
2021/10/12 01:35:15;;;;;;;;;;;;;;;7.55;88.79;97583.53;30002;982;1880;-65
2021/10/12 01:35:50;;;;;;;;;;;;;;;7.53;88.62;97564.06;30002;982;1885;-63
2021/10/12 01:36:21;;;;;;;;;;;;;;;7.54;88.83;97571.91;30002;982;1880;-63
2021/10/12 01:36:52;;;;;;;;;;;;;;;7.55;88.67;97567.34;30002;982;1885;-64
2021/10/12 01:37:23;;;;;;;;;;;;;;;7.55;88.85;97567.34;30002;982;1854;-63
2021/10/12 01:37:54;;;;;;;;;;;;;;;7.55;88.83;97567.34;30002;982;1885;-65
2021/10/12 01:38:30;;;;;;;;;;;;;;;7.54;88.83;97571.09;30002;983;1880;-62
2021/10/12 01:39:01;;;;;;;;;;;;;;;7.56;88.91;97568.97;30002;983;1884;-65
2021/10/12 01:39:32;;;;;;;;;;;;;;;7.56;89.13;97568.97;30002;983;1880;-64
2021/10/12 01:40:06;;;;;;;;;;;;;;;7.56;88.68;97569.78;30002;983;1884;-64
2021/10/12 01:40:37;;;;;;;;;;;;;;;7.55;89.01;97570.03;30002;983;1880;-64
2021/10/12 01:41:09;;;;;;;;;;;;;;;7.54;88.97;97571.91;30002;983;1884;-65
2021/10/12 01:41:40;;;;;;;;;;;;;;;7.55;88.85;97572.72;30002;983;1880;-64
2021/10/12 01:42:11;;;;;;;;;;;;;;;7.54;88.97;97565.69;30002;983;1884;-63
2021/10/12 01:42:42;;;;;;;;;;;;;;;7.54;88.92;97566.53;30002;982;1854;-64
2021/10/12 01:43:13;;;;;;;;;;;;;;;7.52;89.13;97568.66;30002;982;1885;-64
2021/10/12 01:43:44;;;;;;;;;;;;;;;7.54;89.07;97571.91;30002;982;1880;-62
2021/10/12 01:44:17;;;;;;;;;;;;;;;7.54;88.90;97571.09;30002;982;1885;-61
2021/10/12 01:44:48;;;;;;;;;;;;;;;7.55;89.17;97567.34;30002;982;1880;-63
2021/10/12 01:45:18;;;;;;;;;;;;;;;7.54;89.18;97565.69;30002;982;1885;-64
2021/10/12 01:45:49;;;;;;;;;;;;;;;7.54;89.33;97560.31;30002;982;1881;-63
2021/10/12 01:46:20;;;;;;;;;;;;;;;7.54;88.91;97568.41;30002;983;1858;-64
2021/10/12 01:46:51;;;;;;;;;;;;;;;7.53;89.04;97564.88;30002;983;1880;-63
2021/10/12 01:47:22;;;;;;;;;;;;;;;7.56;89.21;97560.88;30002;983;1884;-63
2021/10/12 01:47:53;;;;;;;;;;;;;;;7.57;88.81;97570.59;30002;983;1880;-63
2021/10/12 01:48:24;;;;;;;;;;;;;;;7.58;88.83;97562.25;30002;983;1858;-64
2021/10/12 01:48:55;;;;;;;;;;;;;;;7.58;89.00;97556.84;30002;983;1880;-63
2021/10/12 01:49:26;;;;;;;;;;;;;;;7.57;88.69;97559.78;30002;983;1884;-63
2021/10/12 01:49:57;;;;;;;;;;;;;;;7.58;88.80;97561.41;30002;983;1880;-62
2021/10/12 01:50:28;;;;;;;;;;;;;;;7.57;88.83;97554.37;30002;982;1884;-62
2021/10/12 01:51:00;;;;;;;;;;;;;;;7.57;89.17;97559.78;30002;982;1880;-63
2021/10/12 01:51:30;;;;;;;;;;;;;;;7.56;89.26;97548.19;30002;982;1885;-62
2021/10/12 01:52:02;;;;;;;;;;;;;;;7.55;89.30;97545.72;30002;982;1854;-63
2021/10/12 01:52:33;;;;;;;;;;;;;;;7.55;89.20;97549.25;30002;982;1885;-63
2021/10/12 01:53:03;;;;;;;;;;;;;;;7.55;89.46;97551.12;30002;982;1881;-63
2021/10/12 01:53:34;;;;;;;;;;;;;;;7.55;89.52;97551.12;30002;983;1884;-62
2021/10/12 01:54:17;;;;;;;;;;;;;;;7.56;89.33;97553.56;30002;983;1880;-62
2021/10/12 01:54:48;;;;;;;;;;;;;;;7.58;88.99;97550.62;30002;983;1884;-65
2021/10/12 01:55:22;;;;;;;;;;;;;;;7.61;89.24;97555.50;30002;983;1854;-64
2021/10/12 01:55:53;;;;;;;;;;;;;;;7.60;89.10;97548.47;30002;983;1884;-62
2021/10/12 01:56:24;;;;;;;;;;;;;;;7.62;89.26;97549.81;30002;983;1880;-63
2021/10/12 01:56:55;;;;;;;;;;;;;;;7.63;89.00;97543.34;30002;983;1884;-64
2021/10/12 01:57:26;;;;;;;;;;;;;;;7.63;89.21;97546.03;30002;983;1880;-64
2021/10/12 01:57:56;;;;;;;;;;;;;;;7.63;89.31;97545.22;30002;982;1858;-64
2021/10/12 01:58:27;;;;;;;;;;;;;;;7.63;89.37;97548.75;30002;982;1880;-65
2021/10/12 01:58:58;;;;;;;;;;;;;;;7.63;89.37;97547.94;30002;982;1884;-63
2021/10/12 01:59:29;;;;;;;;;;;;;;;7.62;89.12;97543.62;30002;982;1880;-64
2021/10/12 02:00:00;;;;;;;;;;;;;;;7.63;89.07;97545.22;30002;982;1885;-64
2021/10/12 02:00:31;;;;;;;;;;;;;;;7.63;89.30;97545.22;30002;983;1880;-63
2021/10/12 02:01:02;;;;;;;;;;;;;;;7.62;89.20;97544.41;30002;983;1884;-64
2021/10/12 02:01:33;;;;;;;;;;;;;;;7.61;89.44;97545.53;30002;983;1880;-63
2021/10/12 02:02:04;;;;;;;;;;;;;;;7.61;89.53;97542.81;30002;983;1884;-63
2021/10/12 02:02:35;;;;;;;;;;;;;;;7.63;89.12;97547.94;30002;983;1853;-64
2021/10/12 02:03:06;;;;;;;;;;;;;;;7.64;89.27;97541.47;30002;965;1798;-64
2021/10/12 02:03:37;;;;;;;;;;;;;;;7.64;89.11;97534.16;30002;983;1880;-62
2021/10/12 02:04:08;;;;;;;;;;;;;;;7.64;89.09;97541.47;30002;983;1884;-62
2021/10/12 02:04:39;;;;;;;;;;;;;;;7.65;89.21;97545.78;30002;983;1880;-63
2021/10/12 02:05:10;;;;;;;;;;;;;;;7.65;88.87;97546.59;30002;982;1885;-64
2021/10/12 02:05:41;;;;;;;;;;;;;;;7.66;89.04;97542.03;30002;982;1880;-64
2021/10/12 02:06:11;;;;;;;;;;;;;;;7.67;88.84;97538.25;30002;982;1885;-64
2021/10/12 02:06:42;;;;;;;;;;;;;;;7.66;89.18;97537.44;30002;982;1880;-64
2021/10/12 02:07:13;;;;;;;;;;;;;;;7.67;89.28;97535.53;30002;982;1885;-63
2021/10/12 02:07:44;;;;;;;;;;;;;;;7.67;89.27;97539.06;30002;983;1880;-64
2021/10/12 02:08:15;;;;;;;;;;;;;;;7.67;89.00;97533.66;30002;983;1858;-63
2021/10/12 02:08:45;;;;;;;;;;;;;;;7.68;89.22;97540.69;30002;983;1880;-64
2021/10/12 02:09:16;;;;;;;;;;;;;;;7.67;89.18;97538.25;30002;983;1884;-64
2021/10/12 02:09:47;;;;;;;;;;;;;;;7.68;89.15;97540.69;30002;983;1853;-64
2021/10/12 02:10:18;;;;;;;;;;;;;;;7.69;88.81;97538.81;30002;983;1884;-64
2021/10/12 02:10:49;;;;;;;;;;;;;;;7.70;89.18;97543.94;30002;983;1880;-64
2021/10/12 02:11:19;;;;;;;;;;;;;;;7.71;88.72;97534.78;30002;983;1884;-64
2021/10/12 02:11:50;;;;;;;;;;;;;;;7.72;88.96;97541.00;30002;983;1880;-64
2021/10/12 02:12:21;;;;;;;;;;;;;;;7.71;88.77;97529.38;30002;983;1884;-64
2021/10/12 02:12:52;;;;;;;;;;;;;;;7.72;88.85;97541.81;30001;982;1880;-63
2021/10/12 02:13:23;;;;;;;;;;;;;;;7.72;88.70;97530.19;30001;982;1885;-64
2021/10/12 02:13:53;;;;;;;;;;;;;;;7.72;88.86;97541.00;30001;982;1880;-63
2021/10/12 02:14:24;;;;;;;;;;;;;;;7.73;88.54;97542.62;30001;982;1885;-63
2021/10/12 02:14:55;;;;;;;;;;;;;;;7.72;88.61;97538.28;30002;986;1854;-64
2021/10/12 02:15:26;;;;;;;;;;;;;;;7.73;88.50;97537.22;30001;983;1884;-64
2021/10/12 02:15:57;;;;;;;;;;;;;;;7.75;88.59;97540.47;30001;983;1880;-64
2021/10/12 02:16:28;;;;;;;;;;;;;;;7.73;88.13;97535.31;30002;975;1837;-62
2021/10/12 02:16:59;;;;;;;;;;;;;;;7.74;88.14;97538.84;30001;983;1880;-65
2021/10/12 02:17:29;;;;;;;;;;;;;;;7.74;88.23;97541.53;30001;983;1884;-64
2021/10/12 02:18:00;;;;;;;;;;;;;;;7.75;88.33;97535.06;30001;983;1880;-63
2021/10/12 02:18:31;;;;;;;;;;;;;;;7.78;88.20;97528.34;30001;983;1858;-63
2021/10/12 02:19:02;;;;;;;;;;;;;;;7.79;88.04;97536.19;30001;983;1880;-64
2021/10/12 02:19:34;;;;;;;;;;;;;;;7.79;87.85;97533.50;30001;983;1884;-64
2021/10/12 02:20:06;;;;;;;;;;;;;;;7.80;87.72;97527.00;30001;983;1880;-63
2021/10/12 02:20:37;;;;;;;;;;;;;;;7.81;87.81;97527.81;30001;982;1884;-64
2021/10/12 02:21:08;;;;;;;;;;;;;;;7.81;87.47;97531.34;30001;982;1880;-64
2021/10/12 02:21:38;;;;;;;;;;;;;;;7.82;87.63;97527.56;30001;972;1904;-63
2021/10/12 02:22:09;;;;;;;;;;;;;;;7.83;87.64;97526.50;30001;985;1881;-63
2021/10/12 02:22:41;;;;;;;;;;;;;;;7.83;87.57;97523.78;30001;982;1885;-64
2021/10/12 02:23:11;;;;;;;;;;;;;;;7.84;87.61;97530.00;30001;983;1880;-64
2021/10/12 02:23:42;;;;;;;;;;;;;;;7.85;87.61;97524.34;30001;983;1858;-62
2021/10/12 02:24:13;;;;;;;;;;;;;;;7.85;87.71;97526.22;30001;983;1879;-62
2021/10/12 02:24:44;;;;;;;;;;;;;;;7.84;87.71;97522.72;30001;983;1884;-61
2021/10/12 02:25:15;;;;;;;;;;;;;;;7.84;87.52;97520.03;30001;983;1880;-62
2021/10/12 02:25:46;;;;;;;;;;;;;;;7.84;87.31;97522.72;30001;983;1885;-63
2021/10/12 02:26:16;;;;;;;;;;;;;;;7.85;87.33;97516.25;30001;983;1880;-62
2021/10/12 02:26:47;;;;;;;;;;;;;;;7.84;87.40;97511.91;30001;983;1884;-62
2021/10/12 02:27:18;;;;;;;;;;;;;;;7.84;87.27;97506.50;30001;982;1854;-62
2021/10/12 02:27:50;;;;;;;;;;;;;;;7.82;87.29;97503.25;30001;982;1885;-62
2021/10/12 02:28:20;;;;;;;;;;;;;;;7.82;87.51;97497.03;30001;982;1880;-63
2021/10/12 02:28:51;;;;;;;;;;;;;;;7.81;87.56;97495.41;30001;982;1858;-64
2021/10/12 02:29:22;;;;;;;;;;;;;;;7.82;87.62;97503.25;30001;982;1881;-65
2021/10/12 02:29:53;;;;;;;;;;;;;;;7.81;87.57;97496.22;30001;982;1885;-62
2021/10/12 02:30:24;;;;;;;;;;;;;;;7.81;87.77;97493.53;30001;983;1879;-62
2021/10/12 02:30:54;;;;;;;;;;;;;;;7.81;87.51;97496.22;30001;968;1910;-63
2021/10/12 02:31:25;;;;;;;;;;;;;;;7.80;87.77;97494.59;30001;983;1880;-61
2021/10/12 02:31:56;;;;;;;;;;;;;;;7.80;87.53;97505.41;30001;983;1884;-62
2021/10/12 02:32:27;;;;;;;;;;;;;;;7.80;87.69;97505.41;30001;983;1880;-63
2021/10/12 02:32:57;;;;;;;;;;;;;;;7.83;87.78;97504.06;30001;983;1884;-62
2021/10/12 02:33:28;;;;;;;;;;;;;;;7.83;87.15;97504.06;30001;983;1853;-62
2021/10/12 02:33:59;;;;;;;;;;;;;;;7.83;87.15;97510.28;30002;983;1794;-62
2021/10/12 02:34:30;;;;;;;;;;;;;;;7.82;87.17;97508.66;30001;982;1880;-61
2021/10/12 02:35:01;;;;;;;;;;;;;;;7.81;86.95;97512.44;30001;982;1884;-62
2021/10/12 02:35:32;;;;;;;;;;;;;;;7.80;87.15;97510.81;30001;982;1880;-62
2021/10/12 02:36:03;;;;;;;;;;;;;;;7.79;87.02;97511.88;30001;982;1885;-62
2021/10/12 02:36:34;;;;;;;;;;;;;;;7.80;87.20;97505.41;30001;982;1880;-62
2021/10/12 02:37:05;;;;;;;;;;;;;;;7.79;87.11;97509.16;30001;982;1885;-63
2021/10/12 02:37:36;;;;;;;;;;;;;;;7.79;87.09;97514.56;30001;982;1881;-63
2021/10/12 02:38:07;;;;;;;;;;;;;;;7.80;87.02;97510.81;30001;983;1884;-61
2021/10/12 02:38:39;;;;;;;;;;;;;;;7.79;86.93;97509.16;30001;983;1853;-63
2021/10/12 02:39:10;;;;;;;;;;;;;;;7.78;87.10;97507.53;30001;983;1884;-63
2021/10/12 02:39:41;;;;;;;;;;;;;;;7.79;87.22;97514.56;30001;983;1880;-63
2021/10/12 02:40:12;;;;;;;;;;;;;;;7.78;87.09;97506.72;30001;983;1884;-63
2021/10/12 02:40:43;;;;;;;;;;;;;;;7.79;87.29;97509.16;30001;983;1880;-63
2021/10/12 02:41:14;;;;;;;;;;;;;;;7.78;87.19;97510.25;30001;983;1884;-64
2021/10/12 02:41:45;;;;;;;;;;;;;;;7.78;87.39;97507.53;30001;983;1880;-62
2021/10/12 02:42:16;;;;;;;;;;;;;;;7.78;87.08;97502.13;30001;982;1858;-64
2021/10/12 02:42:47;;;;;;;;;;;;;;;7.77;87.34;97505.91;30001;982;1880;-63
2021/10/12 02:43:18;;;;;;;;;;;;;;;7.76;87.26;97508.87;30001;982;1885;-63
2021/10/12 02:43:52;;;;;;;;;;;;;;;7.75;87.32;97508.06;30001;982;1880;-63
2021/10/12 02:44:23;;;;;;;;;;;;;;;7.74;87.36;97501.03;30001;982;1885;-62
2021/10/12 02:44:54;;;;;;;;;;;;;;;7.73;87.57;97507.50;30001;982;1881;-63
2021/10/12 02:45:25;;;;;;;;;;;;;;;7.73;87.45;97499.41;30001;983;1884;-63
2021/10/12 02:45:56;;;;;;;;;;;;;;;7.72;87.49;97503.16;30001;983;1880;-63
2021/10/12 02:46:27;;;;;;;;;;;;;;;7.73;87.28;97504.81;30001;983;1884;-63
2021/10/12 02:46:57;;;;;;;;;;;;;;;7.71;87.39;97501.53;30001;983;1880;-63
2021/10/12 02:47:28;;;;;;;;;;;;;;;7.70;87.18;97492.63;30001;983;1858;-62
2021/10/12 02:47:59;;;;;;;;;;;;;;;7.69;87.46;97493.69;30001;983;1880;-62
2021/10/12 02:48:30;;;;;;;;;;;;;;;7.68;87.21;97496.66;30001;983;1884;-62
2021/10/12 02:49:01;;;;;;;;;;;;;;;7.69;87.46;97490.19;30001;983;1880;-61